Long Lake, Michigan
Current Conditions -  °F | °C
As of 7:13 PM on Sunday 25 Jan 2015 (Local Time) from KOSC Reporting Station
Overcast Overcast  
Wind Chill:   Ceiling: 2400
Heat Index: 14°   Visibility: 10mi
Dew Point:   Wind: 6mph
Humidity: 74%   Direction: 350°N
Pressure: 30.06"   Gusts: NA
Location:  44.42°N, 83.87°W
Report Text: KOSC 260013Z AUTO 35005KT 10SM OVC024 M10/M13 A3006 RMK AO2 T11001139
Loading
Personal Weather Stations






























Interactive Weather Map New forecast layout! Learn more

10-Day Weather Forecast

Advertisements
Track Severe Weather on mobile